Rock Falls, Nebraska
Current Conditions -  °F | °C
As of 4:15 AM on Tuesday 27 Jan 2015 (Local Time) from KHDE Reporting Station
Clear Clear  
Wind Chill: 35°   Ceiling: Unl
Heat Index: 39°   Visibility: 10mi
Dew Point: 28°   Wind: 5mph
Humidity: 66%   Direction: 220°SW
Pressure: 30.05"   Gusts: NA
Location:  40.3923°N, 99.5355°W
Report Text: KHDE 271015Z AUTO 22004KT 10SM CLR 04/M02 A3005 RMK AO2 T00381020
Loading
Personal Weather Stations






























Interactive Weather Map New forecast layout! Learn more

10-Day Weather Forecast

Advertisements
Track Severe Weather on mobile